Chinggis Khaan International Airport
ZMUB : now visible

Airfield :











YOU CAN JOIN US ON...

 
LOGIN :

Register | Disclaimer

   EN    FR    IT 

 









Legend :    VFR   Marginal VFR   IFR   Intensive IFR   Very Intensive IFR
Visi :
Ceiling :
>= 8 km
>= 3000ft
5 to 8 km
1000 to 3000 ft
1500m to 5 km
500 to 1000 ft
800 to 1500m
200 to 500 ft
< 800m
< 200 ft
Symbols :   Thunderstorms  Fog  Heavy snow  Heavy precipitations  Wind > 20 kt






- Airport Elevation : 4364 ft
- IATA code : ULN


ZMUB - Chinggis Khaan International

CURRENT METAR :
  • 031030Z VRB02MPS 9999 FEW033 16/02 Q1007 NOSIG RMK QFE648.8 37 MOP

EXPIRED METARs :
  • 031000Z VRB02MPS 9999 FEW033 17/01 Q1007 NOSIG RMK QFE648.8 34 MOP
  • 030930Z VRB02MPS 9999 FEW033 17/00 Q1007 NOSIG RMK QFE649.1 33 MOP
  • 030900Z 23004MPS 190V270 9999 FEW033 17/02 Q1007 NOSIG RMK QFE649.1 37 MOP
  • 030830Z 24005MPS 190V270 9999 FEW033 16/02 Q1008 NOSIG RMK QFE649.3 40 MOP
  • 030800Z 23007MPS 180V270 9999 SCT033 15/02 Q1008 NOSIG RMK QFE649.4 42 MOP
  • 030730Z 23008MPS 9999 FEW030CB SCT033 14/02 Q1008 NOSIG RMK QFE649.5 44 MOP

TAF COR TAF ZMUB
Valid from the 03 at 06:00 until the 04 at 12:00 UTC


030500Z 0306/0412 VRB02MPS 9999 FEW030CB SCT033 TX19/0307Z TN01/0322Z
TEMPO 0306/0312 VRB08MPS SHRA SCT030CB SCT033
ZMUB FIR / Asia



MET'MAP, your aeronautical weather chart ! - Copyright ORBIFLY December 2007 - Disclaimer

ORBIFLY MET'MAP TEAM :

Programming & Development : Alexandra Zaïnal
Concept & original design : Baudouin d'Aumeries
Assistance for programming : Marc-Olivier Méhu
Technical & hardware support : Manuel Goepfert

Contact : metmap@orbifly.com




SOURCES & CREDITS :

   NOAA       Earth
Advisory